Time;durP1;ratioP1;P1;durP2;ratioP2;P2;SDS_P1;SDS_P2;PMS_P1;PMS_P2;Temp;Humidity;BMP_temperature;BMP_pressure;BME280_temperature;BME280_humidity;BME280_pressure;Samples;Min_cycle;Max_cycle;Signal;HPM_P1;HPM_P2
2022/09/16 00:01:41;;;;;;;0.50;0.50;;;;;;;;;;5072333;28;20028;-42
2022/09/16 00:04:06;;;;;;;0.75;0.47;;;;;;;;;;5072213;28;20371;-42
2022/09/16 00:06:31;;;;;;;0.50;0.50;;;;;;;;;;5072510;28;20040;-42
2022/09/16 00:09:01;;;;;;;0.85;0.40;;;;;;;;;;5072523;28;20097;-42
2022/09/16 00:11:27;;;;;;;0.95;0.80;;;;;;;;;;5072103;28;20032;-41
2022/09/16 00:13:52;;;;;;;0.80;0.68;;;;;;;;;;5072129;28;20021;-42
2022/09/16 00:16:20;;;;;;;0.60;0.50;;;;;;;;;;5072059;28;20094;-42
2022/09/16 00:18:45;;;;;;;2.50;0.63;;;;;;;;;;5072328;28;20134;-42
2022/09/16 00:21:10;;;;;;;0.73;0.60;;;;;;;;;;5071791;28;20503;-41
2022/09/16 00:23:36;;;;;;;4.35;0.55;;;;;;;;;;5071845;28;20025;-42
2022/09/16 00:26:02;;;;;;;2.05;0.90;;;;;;;;;;5071810;28;20039;-42
2022/09/16 00:28:27;;;;;;;1.23;0.35;;;;;;;;;;5071916;28;20069;-43
2022/09/16 00:30:53;;;;;;;2.50;0.50;;;;;;;;;;5071802;28;20129;-42
2022/09/16 00:33:18;;;;;;;1.55;0.38;;;;;;;;;;5071771;28;20087;-42
2022/09/16 00:35:45;;;;;;;2.08;0.20;;;;;;;;;;5071565;28;20074;-42
2022/09/16 00:38:10;;;;;;;1.75;0.40;;;;;;;;;;5071688;28;20475;-42
2022/09/16 00:40:42;;;;;;;0.82;0.40;;;;;;;;;;5071946;28;20110;-42
2022/09/16 00:43:08;;;;;;;1.33;0.40;;;;;;;;;;5071612;28;20037;-42
2022/09/16 00:45:34;;;;;;;4.97;1.13;;;;;;;;;;5070230;28;20029;-42
2022/09/16 00:48:05;;;;;;;0.57;0.35;;;;;;;;;;5071716;28;20541;-42
2022/09/16 00:50:40;;;;;;;1.20;0.60;;;;;;;;;;5071605;28;20025;-43
2022/09/16 00:53:08;;;;;;;0.20;0.10;;;;;;;;;;5070851;28;20032;-42
2022/09/16 00:55:35;;;;;;;2.50;0.50;;;;;;;;;;5071395;28;20478;-43
2022/09/16 00:58:07;;;;;;;0.52;0.38;;;;;;;;;;5071375;28;20035;-44
2022/09/16 01:00:33;;;;;;;0.52;0.52;;;;;;;;;;5071455;28;20036;-42
2022/09/16 01:02:58;;;;;;;0.52;0.30;;;;;;;;;;5071473;28;20027;-43
2022/09/16 01:05:25;;;;;;;1.15;0.40;;;;;;;;;;5071307;28;20478;-42
2022/09/16 01:07:51;;;;;;;2.08;0.47;;;;;;;;;;5071375;28;20016;-42
2022/09/16 01:10:18;;;;;;;1.27;0.55;;;;;;;;;;5071500;28;20032;-42
2022/09/16 01:12:44;;;;;;;1.98;0.70;;;;;;;;;;5071288;28;20021;-42
2022/09/16 01:15:11;;;;;;;2.70;0.40;;;;;;;;;;5071316;28;20032;-42
2022/09/16 01:17:42;;;;;;;3.13;0.60;;;;;;;;;;5071491;28;20024;-42
2022/09/16 01:20:30;;;;;;;0.30;0.28;;;;;;;;;;5071005;28;20135;-42
2022/09/16 01:22:55;;;;;;;0.47;0.43;;;;;;;;;;5071263;28;20064;-43
2022/09/16 01:25:40;;;;;;;1.48;0.45;;;;;;;;;;5071078;28;20513;-42
2022/09/16 01:28:14;;;;;;;1.23;0.45;;;;;;;;;;5071077;28;20076;-42
2022/09/16 01:30:48;;;;;;;0.68;0.35;;;;;;;;;;5071353;28;20418;-43
2022/09/16 01:33:32;;;;;;;3.05;1.25;;;;;;;;;;5070996;28;20117;-42
2022/09/16 01:36:00;;;;;;;0.30;0.30;;;;;;;;;;5070988;28;20518;-43
2022/09/16 01:38:37;;;;;;;0.30;0.28;;;;;;;;;;5071098;28;20141;-42
2022/09/16 01:41:09;;;;;;;0.98;0.45;;;;;;;;;;5070948;28;20036;-43
2022/09/16 01:43:38;;;;;;;0.52;0.28;;;;;;;;;;5071029;28;20024;-42
2022/09/16 01:46:22;;;;;;;1.67;0.28;;;;;;;;;;5070772;28;20533;-42
2022/09/16 01:48:57;;;;;;;0.73;0.50;;;;;;;;;;5071249;28;20508;-43
2022/09/16 01:51:27;;;;;;;0.77;0.20;;;;;;;;;;5070882;28;20479;-42
2022/09/16 01:54:02;;;;;;;0.80;0.60;;;;;;;;;;5069608;28;20368;-42
2022/09/16 01:56:31;;;;;;;1.05;0.50;;;;;;;;;;5070732;28;20503;-42
2022/09/16 01:59:03;;;;;;;1.55;0.40;;;;;;;;;;5070896;28;20494;-43
2022/09/16 02:01:31;;;;;;;3.83;0.20;;;;;;;;;;5071151;28;20032;-43
2022/09/16 02:04:01;;;;;;;0.40;0.35;;;;;;;;;;5070959;28;20115;-43
2022/09/16 02:06:28;;;;;;;0.80;0.45;;;;;;;;;;5074462;28;20081;-42
2022/09/16 02:08:56;;;;;;;5.10;0.75;;;;;;;;;;5074537;28;20024;-42
2022/09/16 02:11:22;;;;;;;1.15;0.50;;;;;;;;;;5074531;28;20051;-43
2022/09/16 02:13:50;;;;;;;1.63;0.50;;;;;;;;;;5074512;28;20459;-42
2022/09/16 02:16:19;;;;;;;2.70;0.43;;;;;;;;;;5074430;28;20192;-42
2022/09/16 02:18:48;;;;;;;0.88;0.60;;;;;;;;;;5074814;28;20105;-42
2022/09/16 02:21:14;;;;;;;2.65;0.35;;;;;;;;;;5074170;28;20056;-42
2022/09/16 02:23:42;;;;;;;3.22;0.40;;;;;;;;;;5074187;28;20028;-43
2022/09/16 02:26:09;;;;;;;4.72;1.25;;;;;;;;;;5074048;28;20562;-42
2022/09/16 02:28:37;;;;;;;1.17;0.52;;;;;;;;;;5074089;28;20100;-42
2022/09/16 02:31:05;;;;;;;1.08;0.43;;;;;;;;;;5073979;28;20578;-42
2022/09/16 02:33:50;;;;;;;0.63;0.30;;;;;;;;;;5073912;28;20070;-43
2022/09/16 02:36:18;;;;;;;0.63;0.30;;;;;;;;;;5072608;28;20102;-42
2022/09/16 02:38:45;;;;;;;0.35;0.30;;;;;;;;;;5073840;28;20017;-42
2022/09/16 02:41:13;;;;;;;0.65;0.20;;;;;;;;;;5073890;28;20028;-42
2022/09/16 02:43:43;;;;;;;0.68;0.68;;;;;;;;;;5074090;28;20082;-42
2022/09/16 02:46:14;;;;;;;3.65;1.15;;;;;;;;;;5073960;28;20063;-42
2022/09/16 02:48:40;;;;;;;0.77;0.57;;;;;;;;;;5073887;28;20028;-42
2022/09/16 02:51:24;;;;;;;0.20;0.20;;;;;;;;;;5073623;28;20017;-43
2022/09/16 02:53:53;;;;;;;0.10;0.10;;;;;;;;;;5073676;28;20036;-42
2022/09/16 02:56:19;;;;;;;0.20;0.20;;;;;;;;;;5073735;28;20106;-42
2022/09/16 02:58:44;;;;;;;0.20;0.10;;;;;;;;;;5073726;28;20119;-42
2022/09/16 03:01:11;;;;;;;0.52;0.40;;;;;;;;;;5073470;28;20107;-43
2022/09/16 03:03:37;;;;;;;1.30;0.40;;;;;;;;;;5073559;28;20383;-42
2022/09/16 03:06:09;;;;;;;0.43;0.40;;;;;;;;;;5073621;28;20020;-42
2022/09/16 03:08:35;;;;;;;0.65;0.43;;;;;;;;;;5073403;28;20032;-43
2022/09/16 03:11:07;;;;;;;2.53;0.30;;;;;;;;;;5073481;28;20032;-42
2022/09/16 03:13:40;;;;;;;0.90;0.20;;;;;;;;;;5073568;28;20021;-42
2022/09/16 03:16:13;;;;;;;2.35;0.10;;;;;;;;;;5072848;28;20044;-43
2022/09/16 03:19:02;;;;;;;0.00;0.00;;;;;;;;;;5072299;28;20039;-43
2022/09/16 03:21:33;;;;;;;0.10;0.10;;;;;;;;;;5071717;28;20407;-42
2022/09/16 03:24:02;;;;;;;0.43;0.32;;;;;;;;;;5073467;28;20108;-42
2022/09/16 03:26:46;;;;;;;0.43;0.15;;;;;;;;;;5073096;28;20028;-42
2022/09/16 03:29:37;;;;;;;0.60;0.25;;;;;;;;;;5073042;28;20043;-42
2022/09/16 03:32:29;;;;;;;0.85;0.20;;;;;;;;;;5072640;28;20040;-42
2022/09/16 03:35:03;;;;;;;0.10;0.10;;;;;;;;;;5072523;28;20033;-42
2022/09/16 03:37:33;;;;;;;0.20;0.10;;;;;;;;;;5072887;28;20047;-43
2022/09/16 03:40:01;;;;;;;0.95;0.30;;;;;;;;;;5073080;28;20120;-42
2022/09/16 03:42:27;;;;;;;0.20;0.20;;;;;;;;;;5073075;28;20032;-42
2022/09/16 03:44:53;;;;;;;0.70;0.60;;;;;;;;;;5072667;28;20360;-42
2022/09/16 03:47:18;;;;;;;0.63;0.20;;;;;;;;;;5072737;28;20414;-42
2022/09/16 03:49:44;;;;;;;0.10;0.10;;;;;;;;;;5072676;28;20095;-42
2022/09/16 03:52:09;;;;;;;0.57;0.20;;;;;;;;;;5072781;28;20032;-42
2022/09/16 03:54:35;;;;;;;0.55;0.15;;;;;;;;;;5072554;28;20479;-43
2022/09/16 03:57:01;;;;;;;0.98;0.20;;;;;;;;;;5072222;28;20037;-42
2022/09/16 03:59:27;;;;;;;0.10;0.10;;;;;;;;;;5072414;28;20052;-42
2022/09/16 04:01:52;;;;;;;0.57;0.38;;;;;;;;;;5072625;28;20043;-43
2022/09/16 04:04:18;;;;;;;0.20;0.20;;;;;;;;;;5072141;28;20016;-42
2022/09/16 04:06:43;;;;;;;0.10;0.10;;;;;;;;;;5072238;28;20028;-42
2022/09/16 04:09:11;;;;;;;0.05;0.05;;;;;;;;;;5072796;28;20025;-42
2022/09/16 04:11:36;;;;;;;0.17;0.17;;;;;;;;;;5072115;28;20024;-42
2022/09/16 04:14:02;;;;;;;0.40;0.20;;;;;;;;;;5072142;28;20043;-42
2022/09/16 04:16:27;;;;;;;0.20;0.20;;;;;;;;;;5071868;28;20044;-42
2022/09/16 04:18:53;;;;;;;2.67;1.80;;;;;;;;;;5072021;28;20021;-42
2022/09/16 04:21:18;;;;;;;0.40;0.40;;;;;;;;;;5071827;28;20048;-42
2022/09/16 04:23:44;;;;;;;2.50;0.55;;;;;;;;;;5072218;28;20020;-42
2022/09/16 04:26:09;;;;;;;2.42;0.65;;;;;;;;;;5072038;28;20028;-42
2022/09/16 04:28:34;;;;;;;1.40;0.32;;;;;;;;;;5071430;28;20024;-42
2022/09/16 04:31:04;;;;;;;2.10;0.20;;;;;;;;;;5071854;28;20498;-43
2022/09/16 04:33:31;;;;;;;0.40;0.10;;;;;;;;;;5071630;28;20111;-42
2022/09/16 04:36:02;;;;;;;0.20;0.20;;;;;;;;;;5071658;28;20082;-42
2022/09/16 04:38:27;;;;;;;4.80;0.50;;;;;;;;;;5071811;28;20082;-43
2022/09/16 04:40:58;;;;;;;0.88;0.70;;;;;;;;;;5071868;28;20451;-43
2022/09/16 04:43:23;;;;;;;0.85;0.28;;;;;;;;;;5071664;28;20033;-42
2022/09/16 04:45:50;;;;;;;0.25;0.20;;;;;;;;;;5071538;28;20028;-47
2022/09/16 04:48:16;;;;;;;0.10;0.10;;;;;;;;;;5071569;28;20032;-42
2022/09/16 04:50:42;;;;;;;0.40;0.30;;;;;;;;;;5071686;28;20040;-42
2022/09/16 04:53:07;;;;;;;0.57;0.22;;;;;;;;;;5071647;28;20059;-43
2022/09/16 04:55:33;;;;;;;0.30;0.20;;;;;;;;;;5071391;28;20489;-43
2022/09/16 04:58:00;;;;;;;0.20;0.20;;;;;;;;;;5071802;28;20060;-42
2022/09/16 05:00:25;;;;;;;0.20;0.20;;;;;;;;;;5071313;28;20017;-42
2022/09/16 05:02:54;;;;;;;0.52;0.40;;;;;;;;;;5071485;28;20111;-42
2022/09/16 05:05:20;;;;;;;0.30;0.30;;;;;;;;;;5070004;28;20017;-42
2022/09/16 05:07:46;;;;;;;1.20;0.68;;;;;;;;;;5071383;28;20024;-43
2022/09/16 05:10:12;;;;;;;1.55;0.10;;;;;;;;;;5071233;28;20021;-42
2022/09/16 05:12:37;;;;;;;0.82;0.25;;;;;;;;;;5071237;28;20036;-42
2022/09/16 05:15:03;;;;;;;1.38;0.35;;;;;;;;;;5071388;28;20443;-42
2022/09/16 05:17:30;;;;;;;0.38;0.20;;;;;;;;;;5071475;28;20178;-42
2022/09/16 05:19:56;;;;;;;2.50;0.47;;;;;;;;;;5071019;28;20028;-42
2022/09/16 05:22:22;;;;;;;1.33;0.30;;;;;;;;;;5071180;28;20040;-42
2022/09/16 05:24:47;;;;;;;2.30;0.52;;;;;;;;;;5071199;28;20937;-44
2022/09/16 05:27:13;;;;;;;0.77;0.30;;;;;;;;;;5071038;28;20372;-41
2022/09/16 05:29:39;;;;;;;1.25;0.50;;;;;;;;;;5071025;28;20012;-42
2022/09/16 05:32:05;;;;;;;0.43;0.20;;;;;;;;;;5071088;28;20133;-42
2022/09/16 05:36:55;;;;;;;0.63;0.20;;;;;;;;;;5020562;28;20053;-42
2022/09/16 05:39:22;;;;;;;0.32;0.20;;;;;;;;;;5033912;28;20482;-42
2022/09/16 05:41:47;;;;;;;0.45;0.10;;;;;;;;;;5035581;28;20030;-44
2022/09/16 05:44:13;;;;;;;0.68;0.10;;;;;;;;;;5035184;28;20030;-42
2022/09/16 05:46:40;;;;;;;1.10;0.75;;;;;;;;;;5035489;28;20021;-41
2022/09/16 05:49:06;;;;;;;0.28;0.20;;;;;;;;;;5035038;28;20034;-43
2022/09/16 05:51:31;;;;;;;1.40;0.38;;;;;;;;;;5035371;28;20375;-42
2022/09/16 05:53:58;;;;;;;0.22;0.20;;;;;;;;;;5035056;28;20550;-41
2022/09/16 05:56:28;;;;;;;0.50;0.30;;;;;;;;;;5034823;28;20188;-42
2022/09/16 05:58:55;;;;;;;2.13;0.35;;;;;;;;;;5035104;28;20041;-42
2022/09/16 06:01:24;;;;;;;2.00;0.52;;;;;;;;;;5035211;28;20018;-39
2022/09/16 06:03:50;;;;;;;1.08;0.30;;;;;;;;;;5034726;28;20491;-39
2022/09/16 06:06:16;;;;;;;2.33;0.28;;;;;;;;;;5034822;28;20060;-40
2022/09/16 06:08:41;;;;;;;0.73;0.20;;;;;;;;;;5034863;28;20029;-40
2022/09/16 06:11:09;;;;;;;0.80;0.40;;;;;;;;;;5034649;28;20037;-39
2022/09/16 06:13:35;;;;;;;0.25;0.22;;;;;;;;;;5034787;28;20025;-39
2022/09/16 06:16:02;;;;;;;0.10;0.10;;;;;;;;;;5034406;28;20025;-40
2022/09/16 06:18:28;;;;;;;0.13;0.13;;;;;;;;;;5034488;28;20427;-39
2022/09/16 06:20:54;;;;;;;1.27;0.30;;;;;;;;;;5034424;28;20033;-39
2022/09/16 06:23:20;;;;;;;0.20;0.10;;;;;;;;;;5034539;28;20387;-40
2022/09/16 06:25:45;;;;;;;1.67;0.50;;;;;;;;;;5034456;28;20087;-39
2022/09/16 06:28:11;;;;;;;0.35;0.10;;;;;;;;;;5034409;28;20030;-39
2022/09/16 06:30:40;;;;;;;3.65;0.40;;;;;;;;;;5034709;28;20025;-39
2022/09/16 06:33:06;;;;;;;1.35;0.25;;;;;;;;;;5034508;28;20076;-39
2022/09/16 06:35:33;;;;;;;3.22;0.32;;;;;;;;;;5034157;28;20554;-41
2022/09/16 06:37:58;;;;;;;1.25;0.32;;;;;;;;;;5033791;28;20045;-40
2022/09/16 06:40:24;;;;;;;1.48;0.40;;;;;;;;;;5034433;28;20037;-39
2022/09/16 06:42:53;;;;;;;0.70;0.30;;;;;;;;;;5034078;28;20029;-40
2022/09/16 06:45:19;;;;;;;6.45;0.63;;;;;;;;;;5016382;28;20022;-40
2022/09/16 06:47:45;;;;;;;1.90;0.45;;;;;;;;;;5034003;28;20542;-40
2022/09/16 06:50:10;;;;;;;0.28;0.10;;;;;;;;;;5033514;28;20021;-40
2022/09/16 06:52:36;;;;;;;1.20;0.38;;;;;;;;;;5033948;28;20032;-40
2022/09/16 06:55:02;;;;;;;2.22;0.40;;;;;;;;;;5033883;28;20515;-40
2022/09/16 06:57:27;;;;;;;2.90;0.60;;;;;;;;;;5033825;28;20048;-40
2022/09/16 06:59:53;;;;;;;1.80;0.80;;;;;;;;;;5033723;28;20255;-40
2022/09/16 07:02:18;;;;;;;1.58;0.30;;;;;;;;;;5016042;28;20039;-40
2022/09/16 07:04:44;;;;;;;1.67;0.77;;;;;;;;;;5033811;28;20021;-40
2022/09/16 07:07:10;;;;;;;3.72;1.08;;;;;;;;;;5033693;28;20428;-40
2022/09/16 07:09:35;;;;;;;0.63;0.40;;;;;;;;;;5016034;28;20026;-40
2022/09/16 07:12:01;;;;;;;3.53;0.30;;;;;;;;;;5033584;28;20033;-40
2022/09/16 07:14:27;;;;;;;0.63;0.50;;;;;;;;;;5033804;28;20025;-40
2022/09/16 07:16:52;;;;;;;1.00;0.90;;;;;;;;;;5033654;28;20120;-39
2022/09/16 07:19:18;;;;;;;1.08;0.57;;;;;;;;;;5033756;28;20464;-41
2022/09/16 07:21:43;;;;;;;1.27;0.40;;;;;;;;;;5033501;28;20543;-41
2022/09/16 07:24:10;;;;;;;1.00;0.43;;;;;;;;;;5033629;28;20059;-40
2022/09/16 07:26:38;;;;;;;0.10;0.05;;;;;;;;;;5033355;28;20104;-40
2022/09/16 07:29:05;;;;;;;0.22;0.22;;;;;;;;;;5033230;28;20087;-41
2022/09/16 07:31:32;;;;;;;2.50;0.20;;;;;;;;;;5033587;28;20041;-40
2022/09/16 07:34:00;;;;;;;0.75;0.17;;;;;;;;;;5033207;28;20033;-41
2022/09/16 07:36:26;;;;;;;0.90;0.13;;;;;;;;;;5032831;28;20048;-40
2022/09/16 07:38:53;;;;;;;0.32;0.32;;;;;;;;;;5033182;28;20033;-41
2022/09/16 07:41:20;;;;;;;0.40;0.20;;;;;;;;;;5033122;28;20108;-40
2022/09/16 07:43:46;;;;;;;0.20;0.15;;;;;;;;;;5033082;28;20029;-40
2022/09/16 07:46:12;;;;;;;2.97;0.32;;;;;;;;;;5033167;28;20124;-40
2022/09/16 07:48:38;;;;;;;0.20;0.13;;;;;;;;;;5033029;28;20045;-40
2022/09/16 07:51:05;;;;;;;1.33;0.38;;;;;;;;;;5033045;28;20138;-41
2022/09/16 07:53:31;;;;;;;0.20;0.20;;;;;;;;;;5033192;28;20028;-40
2022/09/16 07:56:00;;;;;;;2.13;0.85;;;;;;;;;;5032585;28;20045;-41
2022/09/16 07:58:26;;;;;;;0.22;0.10;;;;;;;;;;5032761;28;20083;-40
2022/09/16 08:00:52;;;;;;;0.10;0.10;;;;;;;;;;5032625;28;20033;-40
2022/09/16 08:03:17;;;;;;;0.05;0.05;;;;;;;;;;5031914;28;20021;-40
2022/09/16 08:05:43;;;;;;;0.20;0.10;;;;;;;;;;5032534;28;20029;-41
2022/09/16 08:08:08;;;;;;;0.80;0.30;;;;;;;;;;5032505;28;20041;-40
2022/09/16 08:10:35;;;;;;;0.10;0.10;;;;;;;;;;5032764;28;20065;-40
2022/09/16 08:13:01;;;;;;;1.15;0.57;;;;;;;;;;5032282;28;20079;-41
2022/09/16 08:15:27;;;;;;;0.75;0.10;;;;;;;;;;5032293;28;20029;-43
2022/09/16 08:17:52;;;;;;;0.30;0.20;;;;;;;;;;5032581;28;20057;-40
2022/09/16 08:20:17;;;;;;;0.77;0.20;;;;;;;;;;5032507;28;20125;-40
2022/09/16 08:22:43;;;;;;;2.40;0.20;;;;;;;;;;5032327;28;20697;-40
2022/09/16 08:25:09;;;;;;;0.77;0.22;;;;;;;;;;5032107;28;20029;-40
2022/09/16 08:27:35;;;;;;;0.40;0.10;;;;;;;;;;5032240;28;20021;-41
2022/09/16 08:30:00;;;;;;;0.08;0.08;;;;;;;;;;5032162;28;20070;-40
2022/09/16 08:32:26;;;;;;;0.55;0.20;;;;;;;;;;5032333;28;20371;-40
2022/09/16 08:34:52;;;;;;;0.25;0.20;;;;;;;;;;5032242;28;20041;-40
2022/09/16 08:37:18;;;;;;;0.20;0.20;;;;;;;;;;5031755;28;20495;-40
2022/09/16 08:39:43;;;;;;;0.05;0.00;;;;;;;;;;5031977;28;20109;-40
2022/09/16 08:42:14;;;;;;;0.20;0.00;;;;;;;;;;5031688;28;20480;-41
2022/09/16 08:44:40;;;;;;;1.95;0.10;;;;;;;;;;5031936;28;20111;-41
2022/09/16 08:47:15;;;;;;;0.45;0.25;;;;;;;;;;5014004;28;20080;-40
2022/09/16 08:49:45;;;;;;;0.10;0.10;;;;;;;;;;5031722;28;20518;-40
2022/09/16 08:52:22;;;;;;;0.00;0.00;;;;;;;;;;5031701;28;20039;-40
2022/09/16 08:54:53;;;;;;;0.00;0.00;;;;;;;;;;5031695;28;20070;-40
2022/09/16 08:57:25;;;;;;;0.00;0.00;;;;;;;;;;5031654;28;20049;-40
2022/09/16 08:59:55;;;;;;;0.10;0.10;;;;;;;;;;5031636;28;20479;-40
2022/09/16 09:02:21;;;;;;;0.10;0.10;;;;;;;;;;5031578;28;20078;-41
2022/09/16 09:04:47;;;;;;;3.17;0.08;;;;;;;;;;5031612;28;20053;-40
2022/09/16 09:07:26;;;;;;;0.20;0.10;;;;;;;;;;5031489;28;20510;-40
2022/09/16 09:10:12;;;;;;;2.20;0.30;;;;;;;;;;5031718;28;20036;-41
2022/09/16 09:12:39;;;;;;;0.20;0.20;;;;;;;;;;5030970;28;20044;-40
2022/09/16 09:15:21;;;;;;;0.17;0.15;;;;;;;;;;5031490;28;20032;-40
2022/09/16 09:18:04;;;;;;;0.10;0.10;;;;;;;;;;5031636;28;20044;-40
2022/09/16 09:20:30;;;;;;;0.00;0.00;;;;;;;;;;5031735;28;20080;-40
2022/09/16 09:23:05;;;;;;;0.00;0.00;;;;;;;;;;5031374;28;20084;-40
2022/09/16 09:25:37;;;;;;;0.00;0.00;;;;;;;;;;5031648;28;20040;-40
2022/09/16 09:28:03;;;;;;;;;;;;;;;;;;5031814;28;20368;-40
2022/09/16 09:30:30;;;;;;;0.30;0.00;;;;;;;;;;5031190;28;20003;-40
2022/09/16 11:45:30;;;;;;;0.00;0.00;;;;;;;;;;5108993;27;20389;-43
2022/09/16 11:48:04;;;;;;;0.10;0.10;;;;;;;;;;5061776;28;20039;-43
2022/09/16 11:50:37;;;;;;;0.00;0.00;;;;;;;;;;5109048;28;20038;-43
2022/09/16 11:53:21;;;;;;;0.00;0.00;;;;;;;;;;5109309;28;20484;-43
2022/09/16 11:55:57;;;;;;;0.00;0.00;;;;;;;;;;5109025;28;20490;-43
2022/09/16 11:58:41;;;;;;;0.00;0.00;;;;;;;;;;5108925;28;20081;-44
2022/09/16 12:01:26;;;;;;;0.00;0.00;;;;;;;;;;5108854;28;20484;-43
2022/09/16 12:04:06;;;;;;;0.10;0.10;;;;;;;;;;5108903;28;20035;-43
2022/09/16 12:07:02;;;;;;;0.00;0.00;;;;;;;;;;5108717;28;20038;-44
2022/09/16 12:09:30;;;;;;;0.20;0.20;;;;;;;;;;5019289;28;20050;-44
2022/09/16 12:12:04;;;;;;;0.10;0.10;;;;;;;;;;5108414;28;20625;-43
2022/09/16 12:14:38;;;;;;;0.20;0.20;;;;;;;;;;5108600;28;20039;-43
2022/09/16 12:17:16;;;;;;;0.10;0.00;;;;;;;;;;5108741;28;20035;-43
2022/09/16 12:19:46;;;;;;;0.20;0.20;;;;;;;;;;5108568;28;20076;-43
2022/09/16 12:22:16;;;;;;;0.00;0.00;;;;;;;;;;5108569;28;20495;-44
2022/09/16 12:24:54;;;;;;;0.00;0.00;;;;;;;;;;5108698;28;20019;-43
2022/09/16 12:27:26;;;;;;;0.25;0.10;;;;;;;;;;5090155;28;20031;-43
2022/09/16 12:29:57;;;;;;;0.00;0.00;;;;;;;;;;5108408;28;20587;-43
2022/09/16 12:32:35;;;;;;;2.13;0.10;;;;;;;;;;5108144;28;20031;-44
2022/09/16 12:35:05;;;;;;;1.38;0.10;;;;;;;;;;5108122;28;20039;-44
2022/09/16 12:37:36;;;;;;;0.05;0.05;;;;;;;;;;5108160;28;20028;-43
2022/09/16 12:40:02;;;;;;;0.10;0.10;;;;;;;;;;5108223;28;20062;-44
2022/09/16 12:42:57;;;;;;;0.00;0.00;;;;;;;;;;5108171;28;20024;-43
2022/09/16 12:45:41;;;;;;;0.10;0.10;;;;;;;;;;5097064;28;20051;-44
2022/09/16 12:48:27;;;;;;;0.05;0.05;;;;;;;;;;5093208;28;20118;-44
2022/09/16 12:50:53;;;;;;;0.00;0.00;;;;;;;;;;5079894;28;20093;-43
2022/09/16 12:53:33;;;;;;;0.00;0.00;;;;;;;;;;5094208;28;20043;-44
2022/09/16 12:56:08;;;;;;;0.10;0.03;;;;;;;;;;5094328;28;20035;-44
2022/09/16 12:58:46;;;;;;;0.10;0.10;;;;;;;;;;5094199;28;20473;-44
2022/09/16 13:01:35;;;;;;;0.00;0.00;;;;;;;;;;5094144;28;20024;-44
2022/09/16 13:04:12;;;;;;;0.10;0.10;;;;;;;;;;5092834;28;20028;-44
2022/09/16 13:06:43;;;;;;;0.00;0.00;;;;;;;;;;5094000;28;20028;-44
2022/09/16 13:09:27;;;;;;;0.10;0.10;;;;;;;;;;5094034;28;20034;-44
2022/09/16 13:11:55;;;;;;;0.00;0.00;;;;;;;;;;5094045;28;20027;-44
2022/09/16 13:14:23;;;;;;;0.00;0.00;;;;;;;;;;5093820;28;20024;-44
2022/09/16 13:16:56;;;;;;;0.90;0.10;;;;;;;;;;5093880;28;20058;-44
2022/09/16 13:19:29;;;;;;;0.00;0.00;;;;;;;;;;5092519;28;20036;-44
2022/09/16 13:22:15;;;;;;;0.00;0.00;;;;;;;;;;5092231;28;20066;-45
2022/09/16 13:25:16;;;;;;;4.43;0.10;;;;;;;;;;5071756;28;20119;-44
2022/09/16 13:27:53;;;;;;;0.03;0.03;;;;;;;;;;5050781;28;20033;-43
2022/09/16 13:30:32;;;;;;;0.00;0.00;;;;;;;;;;5087746;28;20032;-43
2022/09/16 13:33:00;;;;;;;0.28;0.28;;;;;;;;;;5093720;28;20419;-44
2022/09/16 13:35:37;;;;;;;0.10;0.10;;;;;;;;;;5093417;28;20020;-43
2022/09/16 13:38:18;;;;;;;0.00;0.00;;;;;;;;;;5093482;28;20028;-43
2022/09/16 13:41:03;;;;;;;0.00;0.00;;;;;;;;;;5093311;28;20502;-44
2022/09/16 13:43:49;;;;;;;0.17;0.10;;;;;;;;;;5092941;28;20134;-44
2022/09/16 13:46:33;;;;;;;0.17;0.17;;;;;;;;;;5093053;28;20038;-45
2022/09/16 13:49:02;;;;;;;0.28;0.10;;;;;;;;;;5091776;28;20055;-44
2022/09/16 13:51:30;;;;;;;0.00;0.00;;;;;;;;;;5092969;28;20023;-44
2022/09/16 13:54:02;;;;;;;0.10;0.10;;;;;;;;;;5093046;28;20040;-44
2022/09/16 13:56:43;;;;;;;0.03;0.03;;;;;;;;;;5092302;28;20367;-44
2022/09/16 13:59:11;;;;;;;0.05;0.05;;;;;;;;;;5092924;28;20051;-44
2022/09/16 14:02:03;;;;;;;0.00;0.00;;;;;;;;;;5093173;28;20020;-44
2022/09/16 14:04:34;;;;;;;0.03;0.03;;;;;;;;;;5090692;28;20369;-44
2022/09/16 14:07:09;;;;;;;0.10;0.10;;;;;;;;;;5093027;28;20111;-44
2022/09/16 14:09:42;;;;;;;0.10;0.10;;;;;;;;;;5092977;28;20024;-44
2022/09/16 14:12:19;;;;;;;0.00;0.00;;;;;;;;;;5093054;28;20028;-44
2022/09/16 14:14:49;;;;;;;0.10;0.10;;;;;;;;;;5092949;28;20048;-44
2022/09/16 14:17:23;;;;;;;0.03;0.03;;;;;;;;;;5092606;28;20024;-44
2022/09/16 14:19:51;;;;;;;0.20;0.00;;;;;;;;;;5091433;28;20028;-44
2022/09/16 14:22:20;;;;;;;2.28;0.10;;;;;;;;;;5092529;28;20020;-44
2022/09/16 14:24:46;;;;;;;0.90;0.28;;;;;;;;;;5092449;28;20020;-44
2022/09/16 14:27:35;;;;;;;0.10;0.10;;;;;;;;;;5092357;28;20043;-44
2022/09/16 14:30:05;;;;;;;0.20;0.10;;;;;;;;;;5092360;28;20390;-44
2022/09/16 14:32:32;;;;;;;0.10;0.10;;;;;;;;;;5092208;28;20115;-44
2022/09/16 14:34:59;;;;;;;0.17;0.17;;;;;;;;;;5092327;28;20508;-44
2022/09/16 14:37:27;;;;;;;0.00;0.00;;;;;;;;;;5092270;28;20020;-44
2022/09/16 14:40:02;;;;;;;0.28;0.10;;;;;;;;;;5092166;28;20036;-44
2022/09/16 14:42:29;;;;;;;0.00;0.00;;;;;;;;;;5092440;28;20036;-44
2022/09/16 14:44:55;;;;;;;0.00;0.00;;;;;;;;;;5092016;28;20048;-44
2022/09/16 14:47:21;;;;;;;0.08;0.08;;;;;;;;;;5092022;28;20164;-44
2022/09/16 14:49:49;;;;;;;2.88;0.17;;;;;;;;;;5092340;28;20111;-44
2022/09/16 14:52:19;;;;;;;0.10;0.10;;;;;;;;;;5090882;28;20493;-44
2022/09/16 14:54:45;;;;;;;0.10;0.10;;;;;;;;;;5090653;28;20067;-44
2022/09/16 14:57:32;;;;;;;2.83;0.20;;;;;;;;;;5092034;28;20024;-44
2022/09/16 15:00:00;;;;;;;0.10;0.10;;;;;;;;;;5091813;28;20489;-44
2022/09/16 15:02:39;;;;;;;0.10;0.10;;;;;;;;;;5092023;28;20024;-43
2022/09/16 15:05:14;;;;;;;0.10;0.10;;;;;;;;;;5092092;28;20031;-44
2022/09/16 15:07:43;;;;;;;0.00;0.00;;;;;;;;;;5091805;28;20480;-44
2022/09/16 15:10:24;;;;;;;0.10;0.10;;;;;;;;;;5091755;28;20055;-44
2022/09/16 15:12:54;;;;;;;0.00;0.00;;;;;;;;;;5091659;28;20032;-44
2022/09/16 15:15:22;;;;;;;0.10;0.10;;;;;;;;;;5091479;28;20032;-44
2022/09/16 15:17:59;;;;;;;0.00;0.00;;;;;;;;;;5091700;28;20036;-44
2022/09/16 15:20:27;;;;;;;0.00;0.00;;;;;;;;;;5091597;28;20028;-44
2022/09/16 15:22:53;;;;;;;0.08;0.08;;;;;;;;;;5091593;28;20027;-44
2022/09/16 15:25:29;;;;;;;0.00;0.00;;;;;;;;;;5091515;28;20025;-44
2022/09/16 15:28:05;;;;;;;1.98;0.10;;;;;;;;;;5091538;28;20027;-43
2022/09/16 15:30:30;;;;;;;0.10;0.10;;;;;;;;;;5091387;28;20028;-43
2022/09/16 15:32:56;;;;;;;0.10;0.10;;;;;;;;;;5090561;28;20024;-44
2022/09/16 15:35:22;;;;;;;0.10;0.10;;;;;;;;;;5091346;28;20063;-44
2022/09/16 15:37:49;;;;;;;0.00;0.00;;;;;;;;;;5091360;28;20024;-43
2022/09/16 15:40:24;;;;;;;0.10;0.10;;;;;;;;;;5091537;28;20385;-44
2022/09/16 15:43:11;;;;;;;0.10;0.10;;;;;;;;;;5091228;28;20024;-44
2022/09/16 15:45:38;;;;;;;0.03;0.03;;;;;;;;;;5051115;28;20044;-43
2022/09/16 15:48:15;;;;;;;0.00;0.00;;;;;;;;;;5051105;28;20033;-43
2022/09/16 15:50:46;;;;;;;0.10;0.10;;;;;;;;;;5051270;28;20033;-44
2022/09/16 15:53:32;;;;;;;0.03;0.03;;;;;;;;;;5051001;28;20037;-44
2022/09/16 15:56:03;;;;;;;0.10;0.10;;;;;;;;;;5050956;28;20075;-43
2022/09/16 15:58:38;;;;;;;0.10;0.10;;;;;;;;;;5051207;28;20021;-44
2022/09/16 16:01:22;;;;;;;0.10;0.10;;;;;;;;;;5051000;28;20033;-43
2022/09/16 16:03:58;;;;;;;0.43;0.10;;;;;;;;;;5051068;28;20032;-43
2022/09/16 16:07:02;;;;;;;0.15;0.10;;;;;;;;;;5050917;28;20506;-43
2022/09/16 16:09:28;;;;;;;0.10;0.10;;;;;;;;;;5048444;28;20033;-43
2022/09/16 16:11:57;;;;;;;0.10;0.10;;;;;;;;;;5048548;28;20501;-44
2022/09/16 16:14:23;;;;;;;0.10;0.10;;;;;;;;;;5049496;28;20049;-43
2022/09/16 16:16:49;;;;;;;0.10;0.10;;;;;;;;;;5049718;28;20017;-43
2022/09/16 16:19:15;;;;;;;0.10;0.10;;;;;;;;;;5050941;28;20033;-43
2022/09/16 16:21:43;;;;;;;0.10;0.10;;;;;;;;;;5054860;28;20067;-43
2022/09/16 16:24:08;;;;;;;0.20;0.10;;;;;;;;;;5054596;28;20029;-43
2022/09/16 16:26:34;;;;;;;0.05;0.05;;;;;;;;;;5054482;28;20024;-43
2022/09/16 16:29:00;;;;;;;0.10;0.10;;;;;;;;;;5054768;28;20029;-43
2022/09/16 16:31:25;;;;;;;0.47;0.47;;;;;;;;;;5054412;28;20394;-43
2022/09/16 16:33:51;;;;;;;0.00;0.00;;;;;;;;;;5054282;28;20055;-43
2022/09/16 16:36:18;;;;;;;0.10;0.10;;;;;;;;;;5054478;28;20017;-44
2022/09/16 16:38:45;;;;;;;0.22;0.10;;;;;;;;;;5054273;28;20037;-43
2022/09/16 16:41:11;;;;;;;0.00;0.00;;;;;;;;;;5054369;28;20021;-44
2022/09/16 16:43:37;;;;;;;0.03;0.03;;;;;;;;;;5065493;28;20039;-44
2022/09/16 16:46:06;;;;;;;0.20;0.20;;;;;;;;;;5094313;28;20065;-44
2022/09/16 16:48:34;;;;;;;0.10;0.10;;;;;;;;;;5094175;28;20032;-44
2022/09/16 16:51:02;;;;;;;0.22;0.15;;;;;;;;;;5093100;28;20043;-44
2022/09/16 16:53:28;;;;;;;0.77;0.60;;;;;;;;;;5094290;28;20532;-44
2022/09/16 16:56:00;;;;;;;0.25;0.25;;;;;;;;;;5094127;28;20032;-44
2022/09/16 16:58:28;;;;;;;0.00;0.00;;;;;;;;;;5094481;28;20039;-44
2022/09/16 17:00:53;;;;;;;0.00;0.00;;;;;;;;;;5094434;28;20027;-44
2022/09/16 17:03:21;;;;;;;0.00;0.00;;;;;;;;;;5094100;28;20024;-44
2022/09/16 17:05:47;;;;;;;0.00;0.00;;;;;;;;;;5094358;28;20016;-43
2022/09/16 17:08:13;;;;;;;0.10;0.10;;;;;;;;;;5093774;28;20367;-43
2022/09/16 17:10:40;;;;;;;0.25;0.10;;;;;;;;;;5093910;28;20068;-43
2022/09/16 17:13:06;;;;;;;0.10;0.10;;;;;;;;;;5094148;28;20093;-43
2022/09/16 17:15:32;;;;;;;0.00;0.00;;;;;;;;;;5093983;28;20465;-44